Terminal Aerodrome Forecast
Issued by NWS Boston, MA

Home | Current Version | Previous Version | Text Only | Print | Product List | Glossary On
Versions: 1 2 3 4 5 6 7 8 9 10 11 12 13 14 15 16 17 18 19 20 21 22 23 24 25 26 27 28 29 30 31 32 33 34 35 36 37 38 39 40 41 42
000
FTUS41 KBOX 311140
TAFPVD
TAF
KPVD 311140Z 3112/0112 32017G30KT 6SM -SN BKN045
     FM311400 32018G37KT P6SM SCT120
     FM312200 31015G29KT P6SM SKC
     FM010100 31013KT P6SM SKC
     FM010800 28009KT P6SM FEW250=

USA.gov is the U.S. government's official web portal to all federal, state and local government web resources and services.